sensor_id;sensor_type;location;lat;lon;timestamp;P1;durP1;ratioP1;P2;durP2;ratioP2
7398;SDS011;3740;50.700;7.184;2023-04-07T00:00:52;12.57;;;11.37;;
7398;SDS011;3740;50.700;7.184;2023-04-07T00:03:17;13.57;;;12.20;;
7398;SDS011;3740;50.700;7.184;2023-04-07T00:05:43;11.57;;;10.57;;
7398;SDS011;3740;50.700;7.184;2023-04-07T00:08:08;13.40;;;12.13;;
7398;SDS011;3740;50.700;7.184;2023-04-07T00:10:34;12.57;;;11.20;;
7398;SDS011;3740;50.700;7.184;2023-04-07T00:13:00;11.83;;;10.73;;
7398;SDS011;3740;50.700;7.184;2023-04-07T00:15:26;12.20;;;11.00;;
7398;SDS011;3740;50.700;7.184;2023-04-07T00:17:51;12.63;;;11.43;;
7398;SDS011;3740;50.700;7.184;2023-04-07T00:20:17;11.57;;;10.57;;
7398;SDS011;3740;50.700;7.184;2023-04-07T00:22:42;12.87;;;11.60;;
7398;SDS011;3740;50.700;7.184;2023-04-07T00:25:08;12.17;;;11.13;;
7398;SDS011;3740;50.700;7.184;2023-04-07T00:27:34;12.27;;;11.17;;
7398;SDS011;3740;50.700;7.184;2023-04-07T00:30:00;13.20;;;11.70;;
7398;SDS011;3740;50.700;7.184;2023-04-07T00:32:25;12.30;;;11.20;;
7398;SDS011;3740;50.700;7.184;2023-04-07T00:34:51;12.73;;;11.53;;
7398;SDS011;3740;50.700;7.184;2023-04-07T00:37:16;11.93;;;10.80;;
7398;SDS011;3740;50.700;7.184;2023-04-07T00:39:43;14.03;;;12.60;;
7398;SDS011;3740;50.700;7.184;2023-04-07T00:42:09;13.13;;;11.83;;
7398;SDS011;3740;50.700;7.184;2023-04-07T00:44:34;13.07;;;11.80;;
7398;SDS011;3740;50.700;7.184;2023-04-07T00:47:00;12.47;;;11.33;;
7398;SDS011;3740;50.700;7.184;2023-04-07T00:49:26;12.73;;;11.53;;
7398;SDS011;3740;50.700;7.184;2023-04-07T00:51:53;12.80;;;11.60;;
7398;SDS011;3740;50.700;7.184;2023-04-07T00:54:22;12.93;;;11.73;;
7398;SDS011;3740;50.700;7.184;2023-04-07T00:56:48;13.50;;;12.13;;
7398;SDS011;3740;50.700;7.184;2023-04-07T00:59:14;12.93;;;11.63;;
7398;SDS011;3740;50.700;7.184;2023-04-07T01:02:24;12.70;;;11.50;;
7398;SDS011;3740;50.700;7.184;2023-04-07T01:04:46;12.07;;;10.97;;
7398;SDS011;3740;50.700;7.184;2023-04-07T01:07:17;12.10;;;11.10;;
7398;SDS011;3740;50.700;7.184;2023-04-07T01:09:53;12.40;;;11.20;;
7398;SDS011;3740;50.700;7.184;2023-04-07T01:14:57;13.67;;;12.37;;
7398;SDS011;3740;50.700;7.184;2023-04-07T01:17:28;12.90;;;11.67;;
7398;SDS011;3740;50.700;7.184;2023-04-07T01:19:57;14.17;;;12.77;;
7398;SDS011;3740;50.700;7.184;2023-04-07T01:22:26;14.00;;;12.63;;
7398;SDS011;3740;50.700;7.184;2023-04-07T01:25:13;14.07;;;12.77;;
7398;SDS011;3740;50.700;7.184;2023-04-07T01:30:40;14.13;;;12.73;;
7398;SDS011;3740;50.700;7.184;2023-04-07T01:33:08;13.93;;;12.60;;
7398;SDS011;3740;50.700;7.184;2023-04-07T01:35:35;14.23;;;12.93;;
7398;SDS011;3740;50.700;7.184;2023-04-07T01:38:03;13.93;;;12.83;;
7398;SDS011;3740;50.700;7.184;2023-04-07T01:40:32;14.17;;;12.97;;
7398;SDS011;3740;50.700;7.184;2023-04-07T01:42:59;13.93;;;12.53;;
7398;SDS011;3740;50.700;7.184;2023-04-07T01:45:25;14.60;;;13.23;;
7398;SDS011;3740;50.700;7.184;2023-04-07T01:47:52;14.80;;;13.50;;
7398;SDS011;3740;50.700;7.184;2023-04-07T01:50:19;14.80;;;13.50;;
7398;SDS011;3740;50.700;7.184;2023-04-07T01:52:46;15.00;;;13.67;;
7398;SDS011;3740;50.700;7.184;2023-04-07T01:55:12;16.27;;;14.67;;
7398;SDS011;3740;50.700;7.184;2023-04-07T01:57:37;16.07;;;14.67;;
7398;SDS011;3740;50.700;7.184;2023-04-07T02:00:04;16.83;;;15.30;;
7398;SDS011;3740;50.700;7.184;2023-04-07T02:02:33;15.53;;;14.13;;
7398;SDS011;3740;50.700;7.184;2023-04-07T02:05:05;15.63;;;14.13;;
7398;SDS011;3740;50.700;7.184;2023-04-07T02:07:48;14.67;;;13.37;;
7398;SDS011;3740;50.700;7.184;2023-04-07T02:10:29;14.80;;;13.50;;
7398;SDS011;3740;50.700;7.184;2023-04-07T02:12:59;14.97;;;13.60;;
7398;SDS011;3740;50.700;7.184;2023-04-07T02:15:27;14.73;;;13.37;;
7398;SDS011;3740;50.700;7.184;2023-04-07T02:17:56;15.10;;;13.80;;
7398;SDS011;3740;50.700;7.184;2023-04-07T02:20:23;15.17;;;13.83;;
7398;SDS011;3740;50.700;7.184;2023-04-07T02:22:49;14.90;;;13.60;;
7398;SDS011;3740;50.700;7.184;2023-04-07T02:25:28;14.33;;;13.03;;
7398;SDS011;3740;50.700;7.184;2023-04-07T02:27:55;14.03;;;12.63;;
7398;SDS011;3740;50.700;7.184;2023-04-07T02:30:22;12.90;;;11.80;;
7398;SDS011;3740;50.700;7.184;2023-04-07T02:32:48;13.20;;;12.00;;
7398;SDS011;3740;50.700;7.184;2023-04-07T02:35:14;13.60;;;12.40;;
7398;SDS011;3740;50.700;7.184;2023-04-07T02:37:40;14.13;;;12.83;;
7398;SDS011;3740;50.700;7.184;2023-04-07T02:40:07;13.40;;;12.10;;
7398;SDS011;3740;50.700;7.184;2023-04-07T02:42:33;13.73;;;12.53;;
7398;SDS011;3740;50.700;7.184;2023-04-07T02:44:58;13.67;;;12.47;;
7398;SDS011;3740;50.700;7.184;2023-04-07T02:47:24;13.27;;;12.17;;
7398;SDS011;3740;50.700;7.184;2023-04-07T02:49:50;13.23;;;12.13;;
7398;SDS011;3740;50.700;7.184;2023-04-07T02:52:16;12.63;;;11.60;;
7398;SDS011;3740;50.700;7.184;2023-04-07T02:54:41;12.77;;;11.67;;
7398;SDS011;3740;50.700;7.184;2023-04-07T02:57:07;13.80;;;12.50;;
7398;SDS011;3740;50.700;7.184;2023-04-07T02:59:33;13.77;;;12.57;;
7398;SDS011;3740;50.700;7.184;2023-04-07T03:01:58;13.37;;;12.17;;
7398;SDS011;3740;50.700;7.184;2023-04-07T03:04:24;14.10;;;12.80;;
7398;SDS011;3740;50.700;7.184;2023-04-07T03:06:50;15.03;;;13.63;;
7398;SDS011;3740;50.700;7.184;2023-04-07T03:09:15;14.80;;;13.50;;
7398;SDS011;3740;50.700;7.184;2023-04-07T03:11:41;14.07;;;12.87;;
7398;SDS011;3740;50.700;7.184;2023-04-07T03:14:07;13.50;;;12.40;;
7398;SDS011;3740;50.700;7.184;2023-04-07T03:16:32;14.13;;;12.93;;
7398;SDS011;3740;50.700;7.184;2023-04-07T03:18:58;14.27;;;12.97;;
7398;SDS011;3740;50.700;7.184;2023-04-07T03:21:23;15.03;;;13.63;;
7398;SDS011;3740;50.700;7.184;2023-04-07T03:23:49;15.97;;;14.47;;
7398;SDS011;3740;50.700;7.184;2023-04-07T03:26:15;16.17;;;14.77;;
7398;SDS011;3740;50.700;7.184;2023-04-07T03:28:40;15.97;;;14.50;;
7398;SDS011;3740;50.700;7.184;2023-04-07T03:31:06;17.53;;;15.87;;
7398;SDS011;3740;50.700;7.184;2023-04-07T03:33:31;19.30;;;17.50;;
7398;SDS011;3740;50.700;7.184;2023-04-07T03:35:57;21.13;;;19.07;;
7398;SDS011;3740;50.700;7.184;2023-04-07T03:38:23;22.00;;;19.73;;
7398;SDS011;3740;50.700;7.184;2023-04-07T03:40:50;25.97;;;23.37;;
7398;SDS011;3740;50.700;7.184;2023-04-07T03:43:15;24.23;;;21.73;;
7398;SDS011;3740;50.700;7.184;2023-04-07T03:45:41;27.10;;;24.20;;
7398;SDS011;3740;50.700;7.184;2023-04-07T03:48:07;27.90;;;25.00;;
7398;SDS011;3740;50.700;7.184;2023-04-07T03:50:39;32.30;;;27.77;;
7398;SDS011;3740;50.700;7.184;2023-04-07T03:53:05;34.57;;;28.00;;
7398;SDS011;3740;50.700;7.184;2023-04-07T03:55:31;33.93;;;28.10;;
7398;SDS011;3740;50.700;7.184;2023-04-07T03:57:57;30.70;;;27.13;;
7398;SDS011;3740;50.700;7.184;2023-04-07T04:00:23;34.80;;;28.97;;
7398;SDS011;3740;50.700;7.184;2023-04-07T04:02:49;33.60;;;28.30;;
7398;SDS011;3740;50.700;7.184;2023-04-07T04:05:15;33.90;;;29.23;;
7398;SDS011;3740;50.700;7.184;2023-04-07T04:07:40;33.73;;;29.73;;
7398;SDS011;3740;50.700;7.184;2023-04-07T04:10:06;31.83;;;27.67;;
7398;SDS011;3740;50.700;7.184;2023-04-07T04:12:32;32.50;;;28.90;;
7398;SDS011;3740;50.700;7.184;2023-04-07T04:14:57;33.40;;;29.10;;
7398;SDS011;3740;50.700;7.184;2023-04-07T04:17:23;31.47;;;27.40;;
7398;SDS011;3740;50.700;7.184;2023-04-07T04:19:50;36.93;;;28.73;;
7398;SDS011;3740;50.700;7.184;2023-04-07T04:22:15;34.63;;;29.87;;
7398;SDS011;3740;50.700;7.184;2023-04-07T04:24:41;33.00;;;27.60;;
7398;SDS011;3740;50.700;7.184;2023-04-07T04:27:07;31.60;;;28.03;;
7398;SDS011;3740;50.700;7.184;2023-04-07T04:29:32;34.37;;;30.60;;
7398;SDS011;3740;50.700;7.184;2023-04-07T04:31:58;34.37;;;29.07;;
7398;SDS011;3740;50.700;7.184;2023-04-07T04:34:24;34.80;;;29.97;;
7398;SDS011;3740;50.700;7.184;2023-04-07T04:36:50;33.80;;;29.80;;
7398;SDS011;3740;50.700;7.184;2023-04-07T04:39:15;35.83;;;29.90;;
7398;SDS011;3740;50.700;7.184;2023-04-07T04:41:41;35.60;;;30.03;;
7398;SDS011;3740;50.700;7.184;2023-04-07T04:44:06;34.47;;;28.70;;
7398;SDS011;3740;50.700;7.184;2023-04-07T04:46:32;32.63;;;29.07;;
7398;SDS011;3740;50.700;7.184;2023-04-07T04:48:57;37.23;;;30.80;;
7398;SDS011;3740;50.700;7.184;2023-04-07T04:51:23;35.03;;;30.67;;
7398;SDS011;3740;50.700;7.184;2023-04-07T04:53:50;32.83;;;29.33;;
7398;SDS011;3740;50.700;7.184;2023-04-07T04:56:15;33.13;;;29.53;;
7398;SDS011;3740;50.700;7.184;2023-04-07T04:58:41;35.63;;;30.10;;
7398;SDS011;3740;50.700;7.184;2023-04-07T05:01:10;35.87;;;31.23;;
7398;SDS011;3740;50.700;7.184;2023-04-07T05:03:36;35.87;;;31.30;;
7398;SDS011;3740;50.700;7.184;2023-04-07T05:06:01;36.30;;;30.40;;
7398;SDS011;3740;50.700;7.184;2023-04-07T05:08:27;35.87;;;31.53;;
7398;SDS011;3740;50.700;7.184;2023-04-07T05:10:53;37.43;;;31.57;;
7398;SDS011;3740;50.700;7.184;2023-04-07T05:13:19;36.37;;;31.97;;
7398;SDS011;3740;50.700;7.184;2023-04-07T05:15:45;36.27;;;31.07;;
7398;SDS011;3740;50.700;7.184;2023-04-07T05:18:11;34.13;;;30.43;;
7398;SDS011;3740;50.700;7.184;2023-04-07T05:20:36;37.07;;;32.53;;
7398;SDS011;3740;50.700;7.184;2023-04-07T05:23:02;37.00;;;32.97;;
7398;SDS011;3740;50.700;7.184;2023-04-07T05:25:28;38.07;;;32.43;;
7398;SDS011;3740;50.700;7.184;2023-04-07T05:27:53;38.33;;;33.33;;
7398;SDS011;3740;50.700;7.184;2023-04-07T05:30:19;39.17;;;33.80;;
7398;SDS011;3740;50.700;7.184;2023-04-07T05:32:45;39.00;;;33.13;;
7398;SDS011;3740;50.700;7.184;2023-04-07T05:35:10;38.87;;;34.00;;
7398;SDS011;3740;50.700;7.184;2023-04-07T05:37:36;38.70;;;33.23;;
7398;SDS011;3740;50.700;7.184;2023-04-07T05:40:01;36.87;;;32.47;;
7398;SDS011;3740;50.700;7.184;2023-04-07T05:42:27;38.20;;;33.93;;
7398;SDS011;3740;50.700;7.184;2023-04-07T05:44:53;35.70;;;31.83;;
7398;SDS011;3740;50.700;7.184;2023-04-07T05:47:19;36.67;;;32.77;;
7398;SDS011;3740;50.700;7.184;2023-04-07T05:49:45;37.63;;;32.57;;
7398;SDS011;3740;50.700;7.184;2023-04-07T05:52:12;36.87;;;31.83;;
7398;SDS011;3740;50.700;7.184;2023-04-07T05:54:38;37.30;;;32.40;;
7398;SDS011;3740;50.700;7.184;2023-04-07T05:57:04;37.73;;;32.97;;
7398;SDS011;3740;50.700;7.184;2023-04-07T05:59:31;35.17;;;31.33;;
7398;SDS011;3740;50.700;7.184;2023-04-07T06:01:57;34.70;;;30.43;;
7398;SDS011;3740;50.700;7.184;2023-04-07T06:04:22;37.77;;;31.13;;
7398;SDS011;3740;50.700;7.184;2023-04-07T06:06:48;35.80;;;32.00;;
7398;SDS011;3740;50.700;7.184;2023-04-07T06:09:13;32.63;;;29.20;;
7398;SDS011;3740;50.700;7.184;2023-04-07T06:11:39;34.00;;;29.80;;
7398;SDS011;3740;50.700;7.184;2023-04-07T06:14:04;31.20;;;27.80;;
7398;SDS011;3740;50.700;7.184;2023-04-07T06:16:30;33.43;;;29.83;;
7398;SDS011;3740;50.700;7.184;2023-04-07T06:18:55;33.20;;;29.60;;
7398;SDS011;3740;50.700;7.184;2023-04-07T06:21:21;33.57;;;27.93;;
7398;SDS011;3740;50.700;7.184;2023-04-07T06:23:47;31.87;;;28.37;;
7398;SDS011;3740;50.700;7.184;2023-04-07T06:26:12;32.57;;;29.03;;
7398;SDS011;3740;50.700;7.184;2023-04-07T06:28:38;35.83;;;29.23;;
7398;SDS011;3740;50.700;7.184;2023-04-07T06:31:03;35.70;;;29.97;;
7398;SDS011;3740;50.700;7.184;2023-04-07T06:33:29;31.67;;;28.27;;
7398;SDS011;3740;50.700;7.184;2023-04-07T06:35:55;32.37;;;28.97;;
7398;SDS011;3740;50.700;7.184;2023-04-07T06:38:21;35.77;;;29.80;;
7398;SDS011;3740;50.700;7.184;2023-04-07T06:40:47;33.07;;;29.47;;
7398;SDS011;3740;50.700;7.184;2023-04-07T06:43:12;33.07;;;29.50;;
7398;SDS011;3740;50.700;7.184;2023-04-07T06:45:38;34.57;;;29.83;;
7398;SDS011;3740;50.700;7.184;2023-04-07T06:48:03;31.33;;;27.93;;
7398;SDS011;3740;50.700;7.184;2023-04-07T06:50:29;30.73;;;27.43;;
7398;SDS011;3740;50.700;7.184;2023-04-07T06:52:55;33.90;;;27.87;;
7398;SDS011;3740;50.700;7.184;2023-04-07T06:55:21;29.03;;;25.93;;
7398;SDS011;3740;50.700;7.184;2023-04-07T06:57:46;32.57;;;28.80;;
7398;SDS011;3740;50.700;7.184;2023-04-07T07:00:12;34.43;;;30.80;;
7398;SDS011;3740;50.700;7.184;2023-04-07T07:02:38;30.30;;;27.10;;
7398;SDS011;3740;50.700;7.184;2023-04-07T07:05:04;31.57;;;26.70;;
7398;SDS011;3740;50.700;7.184;2023-04-07T07:07:30;33.20;;;28.13;;
7398;SDS011;3740;50.700;7.184;2023-04-07T07:09:56;31.70;;;28.27;;
7398;SDS011;3740;50.700;7.184;2023-04-07T07:12:21;30.57;;;26.67;;
7398;SDS011;3740;50.700;7.184;2023-04-07T07:14:47;29.70;;;26.60;;
7398;SDS011;3740;50.700;7.184;2023-04-07T07:17:12;31.33;;;27.93;;
7398;SDS011;3740;50.700;7.184;2023-04-07T07:19:38;32.23;;;28.47;;
7398;SDS011;3740;50.700;7.184;2023-04-07T07:22:04;30.60;;;26.90;;
7398;SDS011;3740;50.700;7.184;2023-04-07T07:24:29;30.43;;;25.30;;
7398;SDS011;3740;50.700;7.184;2023-04-07T07:26:57;29.47;;;26.23;;
7398;SDS011;3740;50.700;7.184;2023-04-07T07:29:23;30.27;;;26.70;;
7398;SDS011;3740;50.700;7.184;2023-04-07T07:31:49;29.43;;;25.93;;
7398;SDS011;3740;50.700;7.184;2023-04-07T07:34:14;30.33;;;26.37;;
7398;SDS011;3740;50.700;7.184;2023-04-07T07:36:40;28.83;;;25.80;;
7398;SDS011;3740;50.700;7.184;2023-04-07T07:39:06;30.23;;;25.33;;
7398;SDS011;3740;50.700;7.184;2023-04-07T07:41:31;31.07;;;26.23;;
7398;SDS011;3740;50.700;7.184;2023-04-07T07:43:57;29.77;;;25.83;;
7398;SDS011;3740;50.700;7.184;2023-04-07T07:46:22;28.77;;;25.73;;
7398;SDS011;3740;50.700;7.184;2023-04-07T07:48:50;31.83;;;26.97;;
7398;SDS011;3740;50.700;7.184;2023-04-07T07:51:15;29.47;;;25.40;;
7398;SDS011;3740;50.700;7.184;2023-04-07T07:53:42;29.30;;;25.20;;
7398;SDS011;3740;50.700;7.184;2023-04-07T07:56:08;25.03;;;22.30;;
7398;SDS011;3740;50.700;7.184;2023-04-07T07:58:34;29.37;;;25.23;;
7398;SDS011;3740;50.700;7.184;2023-04-07T08:00:59;28.80;;;24.30;;
7398;SDS011;3740;50.700;7.184;2023-04-07T08:03:25;30.87;;;25.67;;
7398;SDS011;3740;50.700;7.184;2023-04-07T08:05:51;31.17;;;26.70;;
7398;SDS011;3740;50.700;7.184;2023-04-07T08:08:16;25.07;;;21.50;;
7398;SDS011;3740;50.700;7.184;2023-04-07T08:10:42;26.90;;;22.83;;
7398;SDS011;3740;50.700;7.184;2023-04-07T08:13:07;24.50;;;21.83;;
7398;SDS011;3740;50.700;7.184;2023-04-07T08:15:33;25.37;;;21.93;;
7398;SDS011;3740;50.700;7.184;2023-04-07T08:17:58;22.60;;;20.20;;
7398;SDS011;3740;50.700;7.184;2023-04-07T08:20:25;22.07;;;19.67;;
7398;SDS011;3740;50.700;7.184;2023-04-07T08:22:51;21.23;;;18.60;;
7398;SDS011;3740;50.700;7.184;2023-04-07T08:25:17;21.37;;;18.60;;
7398;SDS011;3740;50.700;7.184;2023-04-07T08:27:43;19.77;;;17.70;;
7398;SDS011;3740;50.700;7.184;2023-04-07T08:30:08;18.93;;;16.83;;
7398;SDS011;3740;50.700;7.184;2023-04-07T08:32:35;19.70;;;17.53;;
7398;SDS011;3740;50.700;7.184;2023-04-07T08:35:01;18.70;;;15.87;;
7398;SDS011;3740;50.700;7.184;2023-04-07T08:37:27;16.33;;;14.63;;
7398;SDS011;3740;50.700;7.184;2023-04-07T08:39:52;15.60;;;13.87;;
7398;SDS011;3740;50.700;7.184;2023-04-07T08:42:18;17.43;;;14.17;;
7398;SDS011;3740;50.700;7.184;2023-04-07T08:44:46;15.27;;;13.27;;
7398;SDS011;3740;50.700;7.184;2023-04-07T08:47:13;15.57;;;12.73;;
7398;SDS011;3740;50.700;7.184;2023-04-07T08:49:41;15.07;;;12.60;;
7398;SDS011;3740;50.700;7.184;2023-04-07T08:52:09;14.67;;;13.07;;
7398;SDS011;3740;50.700;7.184;2023-04-07T08:54:37;13.17;;;11.87;;
7398;SDS011;3740;50.700;7.184;2023-04-07T08:57:03;14.53;;;12.77;;
7398;SDS011;3740;50.700;7.184;2023-04-07T08:59:29;14.40;;;12.67;;
7398;SDS011;3740;50.700;7.184;2023-04-07T09:01:57;13.30;;;11.53;;
7398;SDS011;3740;50.700;7.184;2023-04-07T09:04:23;12.83;;;10.63;;
7398;SDS011;3740;50.700;7.184;2023-04-07T09:06:49;13.07;;;11.10;;
7398;SDS011;3740;50.700;7.184;2023-04-07T09:09:15;12.37;;;11.00;;
7398;SDS011;3740;50.700;7.184;2023-04-07T09:11:40;10.77;;;9.63;;
7398;SDS011;3740;50.700;7.184;2023-04-07T09:14:06;12.03;;;10.27;;
7398;SDS011;3740;50.700;7.184;2023-04-07T09:16:31;11.63;;;10.10;;
7398;SDS011;3740;50.700;7.184;2023-04-07T09:18:57;12.20;;;9.03;;
7398;SDS011;3740;50.700;7.184;2023-04-07T09:21:23;10.97;;;9.57;;
7398;SDS011;3740;50.700;7.184;2023-04-07T09:23:49;9.73;;;8.60;;
7398;SDS011;3740;50.700;7.184;2023-04-07T09:26:24;9.90;;;8.90;;
7398;SDS011;3740;50.700;7.184;2023-04-07T09:28:53;9.90;;;8.27;;
7398;SDS011;3740;50.700;7.184;2023-04-07T09:31:20;9.27;;;7.97;;
7398;SDS011;3740;50.700;7.184;2023-04-07T09:33:49;9.33;;;8.33;;
7398;SDS011;3740;50.700;7.184;2023-04-07T09:36:15;11.03;;;7.87;;
7398;SDS011;3740;50.700;7.184;2023-04-07T09:38:42;8.93;;;7.70;;
7398;SDS011;3740;50.700;7.184;2023-04-07T09:41:09;8.53;;;7.63;;
7398;SDS011;3740;50.700;7.184;2023-04-07T09:43:37;8.33;;;7.50;;
7398;SDS011;3740;50.700;7.184;2023-04-07T09:46:12;9.20;;;8.20;;
7398;SDS011;3740;50.700;7.184;2023-04-07T09:48:39;8.57;;;7.70;;
7398;SDS011;3740;50.700;7.184;2023-04-07T09:51:06;9.23;;;7.83;;
7398;SDS011;3740;50.700;7.184;2023-04-07T09:53:43;11.80;;;9.13;;
7398;SDS011;3740;50.700;7.184;2023-04-07T09:56:19;13.87;;;10.97;;
7398;SDS011;3740;50.700;7.184;2023-04-07T09:58:49;11.70;;;8.87;;
7398;SDS011;3740;50.700;7.184;2023-04-07T10:01:18;10.43;;;9.07;;
7398;SDS011;3740;50.700;7.184;2023-04-07T10:03:45;10.00;;;8.90;;
7398;SDS011;3740;50.700;7.184;2023-04-07T10:06:12;9.77;;;8.77;;
7398;SDS011;3740;50.700;7.184;2023-04-07T10:08:39;11.13;;;9.93;;
7398;SDS011;3740;50.700;7.184;2023-04-07T10:11:06;10.63;;;9.53;;
7398;SDS011;3740;50.700;7.184;2023-04-07T10:13:34;11.27;;;9.90;;
7398;SDS011;3740;50.700;7.184;2023-04-07T10:18:29;10.83;;;9.73;;
7398;SDS011;3740;50.700;7.184;2023-04-07T10:20:56;11.00;;;9.90;;
7398;SDS011;3740;50.700;7.184;2023-04-07T10:26:19;10.27;;;9.17;;
7398;SDS011;3740;50.700;7.184;2023-04-07T10:28:48;13.10;;;11.57;;
7398;SDS011;3740;50.700;7.184;2023-04-07T10:31:17;12.47;;;11.17;;
7398;SDS011;3740;50.700;7.184;2023-04-07T10:33:45;12.30;;;11.07;;
7398;SDS011;3740;50.700;7.184;2023-04-07T10:36:12;11.90;;;10.60;;
7398;SDS011;3740;50.700;7.184;2023-04-07T10:38:37;11.93;;;10.60;;
7398;SDS011;3740;50.700;7.184;2023-04-07T10:44:43;12.40;;;11.20;;
7398;SDS011;3740;50.700;7.184;2023-04-07T10:47:04;11.63;;;10.43;;
7398;SDS011;3740;50.700;7.184;2023-04-07T10:49:31;12.40;;;11.10;;
7398;SDS011;3740;50.700;7.184;2023-04-07T10:54:36;11.30;;;10.03;;
7398;SDS011;3740;50.700;7.184;2023-04-07T10:59:27;14.50;;;11.80;;
7398;SDS011;3740;50.700;7.184;2023-04-07T11:04:41;14.40;;;12.53;;
7398;SDS011;3740;50.700;7.184;2023-04-07T11:07:10;13.83;;;12.37;;
7398;SDS011;3740;50.700;7.184;2023-04-07T11:09:38;12.67;;;11.43;;
7398;SDS011;3740;50.700;7.184;2023-04-07T11:12:05;12.93;;;11.73;;
7398;SDS011;3740;50.700;7.184;2023-04-07T11:14:31;12.27;;;11.00;;
7398;SDS011;3740;50.700;7.184;2023-04-07T11:16:58;13.87;;;12.40;;
7398;SDS011;3740;50.700;7.184;2023-04-07T11:19:27;12.87;;;11.27;;
7398;SDS011;3740;50.700;7.184;2023-04-07T11:24:38;11.87;;;10.67;;
7398;SDS011;3740;50.700;7.184;2023-04-07T11:27:04;13.23;;;11.80;;
7398;SDS011;3740;50.700;7.184;2023-04-07T11:29:31;13.97;;;12.47;;
7398;SDS011;3740;50.700;7.184;2023-04-07T11:31:57;14.63;;;13.13;;
7398;SDS011;3740;50.700;7.184;2023-04-07T11:34:30;14.70;;;12.57;;
7398;SDS011;3740;50.700;7.184;2023-04-07T11:36:57;13.50;;;12.03;;
7398;SDS011;3740;50.700;7.184;2023-04-07T11:39:23;13.67;;;11.97;;
7398;SDS011;3740;50.700;7.184;2023-04-07T11:41:55;16.20;;;12.00;;
7398;SDS011;3740;50.700;7.184;2023-04-07T11:44:21;15.27;;;13.13;;
7398;SDS011;3740;50.700;7.184;2023-04-07T11:46:57;16.60;;;14.90;;
7398;SDS011;3740;50.700;7.184;2023-04-07T11:49:27;22.73;;;19.57;;
7398;SDS011;3740;50.700;7.184;2023-04-07T11:52:05;17.80;;;15.63;;
7398;SDS011;3740;50.700;7.184;2023-04-07T11:57:06;17.87;;;16.10;;
7398;SDS011;3740;50.700;7.184;2023-04-07T11:59:34;15.73;;;14.13;;
7398;SDS011;3740;50.700;7.184;2023-04-07T12:02:00;19.20;;;15.43;;
7398;SDS011;3740;50.700;7.184;2023-04-07T12:04:26;16.97;;;15.17;;
7398;SDS011;3740;50.700;7.184;2023-04-07T12:06:51;19.00;;;16.70;;
7398;SDS011;3740;50.700;7.184;2023-04-07T12:09:27;18.33;;;16.43;;
7398;SDS011;3740;50.700;7.184;2023-04-07T12:11:59;18.50;;;16.50;;
7398;SDS011;3740;50.700;7.184;2023-04-07T12:14:26;17.57;;;15.87;;
7398;SDS011;3740;50.700;7.184;2023-04-07T12:16:53;22.23;;;17.43;;
7398;SDS011;3740;50.700;7.184;2023-04-07T12:19:21;20.30;;;17.83;;
7398;SDS011;3740;50.700;7.184;2023-04-07T12:21:47;20.80;;;18.40;;
7398;SDS011;3740;50.700;7.184;2023-04-07T12:24:13;20.87;;;18.63;;
7398;SDS011;3740;50.700;7.184;2023-04-07T12:26:38;23.53;;;18.73;;
7398;SDS011;3740;50.700;7.184;2023-04-07T12:29:04;19.43;;;17.43;;
7398;SDS011;3740;50.700;7.184;2023-04-07T12:31:31;21.10;;;18.03;;
7398;SDS011;3740;50.700;7.184;2023-04-07T12:33:57;22.23;;;18.47;;
7398;SDS011;3740;50.700;7.184;2023-04-07T12:36:23;19.07;;;16.93;;
7398;SDS011;3740;50.700;7.184;2023-04-07T12:38:50;22.53;;;20.10;;
7398;SDS011;3740;50.700;7.184;2023-04-07T12:41:15;22.73;;;19.40;;
7398;SDS011;3740;50.700;7.184;2023-04-07T12:43:41;22.57;;;20.20;;
7398;SDS011;3740;50.700;7.184;2023-04-07T12:46:06;20.63;;;18.47;;
7398;SDS011;3740;50.700;7.184;2023-04-07T12:48:32;19.83;;;17.90;;
7398;SDS011;3740;50.700;7.184;2023-04-07T12:50:57;20.57;;;18.47;;
7398;SDS011;3740;50.700;7.184;2023-04-07T12:53:23;20.67;;;18.53;;
7398;SDS011;3740;50.700;7.184;2023-04-07T12:55:48;21.37;;;19.13;;
7398;SDS011;3740;50.700;7.184;2023-04-07T12:58:14;22.17;;;17.63;;
7398;SDS011;3740;50.700;7.184;2023-04-07T13:00:39;20.20;;;18.10;;
7398;SDS011;3740;50.700;7.184;2023-04-07T13:03:05;20.03;;;17.70;;
7398;SDS011;3740;50.700;7.184;2023-04-07T13:05:31;19.87;;;17.77;;
7398;SDS011;3740;50.700;7.184;2023-04-07T13:07:58;19.50;;;17.47;;
7398;SDS011;3740;50.700;7.184;2023-04-07T13:10:23;19.37;;;17.33;;
7398;SDS011;3740;50.700;7.184;2023-04-07T13:12:49;18.47;;;16.57;;
7398;SDS011;3740;50.700;7.184;2023-04-07T13:15:14;19.00;;;16.67;;
7398;SDS011;3740;50.700;7.184;2023-04-07T13:17:40;19.50;;;17.50;;
7398;SDS011;3740;50.700;7.184;2023-04-07T13:20:06;20.50;;;16.73;;
7398;SDS011;3740;50.700;7.184;2023-04-07T13:22:32;17.10;;;15.50;;
7398;SDS011;3740;50.700;7.184;2023-04-07T13:24:58;18.07;;;16.07;;
7398;SDS011;3740;50.700;7.184;2023-04-07T13:27:23;17.70;;;15.83;;
7398;SDS011;3740;50.700;7.184;2023-04-07T13:29:49;18.43;;;16.27;;
7398;SDS011;3740;50.700;7.184;2023-04-07T13:32:14;19.33;;;17.10;;
7398;SDS011;3740;50.700;7.184;2023-04-07T13:34:40;20.47;;;17.93;;
7398;SDS011;3740;50.700;7.184;2023-04-07T13:37:06;18.23;;;16.43;;
7398;SDS011;3740;50.700;7.184;2023-04-07T13:39:32;17.20;;;15.40;;
7398;SDS011;3740;50.700;7.184;2023-04-07T13:41:58;19.13;;;17.27;;
7398;SDS011;3740;50.700;7.184;2023-04-07T13:44:24;19.50;;;17.40;;
7398;SDS011;3740;50.700;7.184;2023-04-07T13:46:51;21.03;;;18.83;;
7398;SDS011;3740;50.700;7.184;2023-04-07T13:49:17;20.90;;;18.37;;
7398;SDS011;3740;50.700;7.184;2023-04-07T13:51:42;17.93;;;16.03;;
7398;SDS011;3740;50.700;7.184;2023-04-07T13:54:08;19.27;;;17.17;;
7398;SDS011;3740;50.700;7.184;2023-04-07T13:56:34;18.13;;;16.17;;
7398;SDS011;3740;50.700;7.184;2023-04-07T13:59:02;21.30;;;19.07;;
7398;SDS011;3740;50.700;7.184;2023-04-07T14:01:28;21.53;;;18.43;;
7398;SDS011;3740;50.700;7.184;2023-04-07T14:03:54;18.93;;;17.03;;
7398;SDS011;3740;50.700;7.184;2023-04-07T14:06:19;17.57;;;15.80;;
7398;SDS011;3740;50.700;7.184;2023-04-07T14:08:48;19.13;;;16.17;;
7398;SDS011;3740;50.700;7.184;2023-04-07T14:11:15;16.57;;;14.83;;
7398;SDS011;3740;50.700;7.184;2023-04-07T14:13:44;17.30;;;15.43;;
7398;SDS011;3740;50.700;7.184;2023-04-07T14:16:10;17.83;;;16.03;;
7398;SDS011;3740;50.700;7.184;2023-04-07T14:18:36;17.80;;;14.90;;
7398;SDS011;3740;50.700;7.184;2023-04-07T14:21:02;16.97;;;15.27;;
7398;SDS011;3740;50.700;7.184;2023-04-07T14:23:29;17.80;;;16.00;;
7398;SDS011;3740;50.700;7.184;2023-04-07T14:25:56;16.00;;;13.87;;
7398;SDS011;3740;50.700;7.184;2023-04-07T14:28:22;17.43;;;15.60;;
7398;SDS011;3740;50.700;7.184;2023-04-07T14:30:48;20.20;;;18.10;;
7398;SDS011;3740;50.700;7.184;2023-04-07T14:33:13;18.70;;;16.77;;
7398;SDS011;3740;50.700;7.184;2023-04-07T14:35:41;18.23;;;16.33;;
7398;SDS011;3740;50.700;7.184;2023-04-07T14:38:07;18.03;;;16.13;;
7398;SDS011;3740;50.700;7.184;2023-04-07T14:40:32;19.87;;;16.97;;
7398;SDS011;3740;50.700;7.184;2023-04-07T14:42:58;15.77;;;14.27;;
7398;SDS011;3740;50.700;7.184;2023-04-07T14:45:23;18.33;;;16.43;;
7398;SDS011;3740;50.700;7.184;2023-04-07T14:47:49;19.13;;;17.23;;
7398;SDS011;3740;50.700;7.184;2023-04-07T14:50:15;18.70;;;16.67;;
7398;SDS011;3740;50.700;7.184;2023-04-07T14:52:40;18.77;;;16.53;;
7398;SDS011;3740;50.700;7.184;2023-04-07T14:55:07;17.17;;;15.47;;
7398;SDS011;3740;50.700;7.184;2023-04-07T14:57:33;17.90;;;16.10;;
7398;SDS011;3740;50.700;7.184;2023-04-07T14:59:58;17.73;;;16.03;;
7398;SDS011;3740;50.700;7.184;2023-04-07T15:02:24;18.80;;;16.80;;
7398;SDS011;3740;50.700;7.184;2023-04-07T15:04:49;17.07;;;15.47;;
7398;SDS011;3740;50.700;7.184;2023-04-07T15:07:15;17.87;;;15.80;;
7398;SDS011;3740;50.700;7.184;2023-04-07T15:09:40;16.27;;;14.53;;
7398;SDS011;3740;50.700;7.184;2023-04-07T15:12:06;17.13;;;14.73;;